Timeline UpdatesTrip UpdatesNews PostsPvt PostsTravel TipsAdmin PostsConv PostsFollowed PostsChat RequestsBlog PostsPNR Posts

Disclaimer
Search
 
 
Wed Oct 1, 2014 01:23:40 ISTHomeTrainsΣChainsAtlasPNRForumGalleryNewsFAQTripsMembersLoginFeedback
No Recent News for this Train
Other Trains in the News **new
Latest...
Temporary Stop at Vindhyachal (BDL) for 2 minutes from 25/9/14-6/10/14 #1223333.
Wed Sep 24, 2014 (11:33PM)
⇐ Return Journey: Train# 15648

15647/Mumbai LTT-Guwahati Weekly Express

Time-Table HAS CHANGED.
Sep 24 (11:33PM)
Change Departure Station:
Change Arrival Station:
Post a Train Travel TipPost a Train Travel Tip **new
Post a Comment/Question/Picture/VideoPost a Comment/Question/Picture/Video
Pantry/Catering
✓ Pantry Car Avbl
✓ Catering Avbl
RSA - Rake Sharing
Rake/Coach Composition
2A-1; 3A-3; SL-12; GEN-3; PC-1; SLR-2 :: 22 COACH
Loco
ET-GHY =>ET WDMx
News    PNR    Forum    Time-Table    Availability    Fare Chart    Map    Arr/Dep History    Trips    Gallery    ΣChains    X/O    Timeline    
Travel Time: 31h 5m    37 halts    Distance: 1402 km    Avg Speed: 45 km/hr
Type: Mail/Express
Zone: NFR/Northeast Frontier
Departs @ 05:55 (Avg 12m late)
Platform# ???
      S
Chheoki Junction/COI 
Arrives @ 13:00 +1 night (Avg 59m late)
Platform# ???
S      
Guwahati/GHY 

37 halts. 259 intermediate Stations between Chheoki Junction and Guwahati

Show ALL intermediate Stations  Show Old Time-Table

#CodeStation NameX/OArrivesAvgDepartsAvgHaltPFDay#KmSpeedElevZoneAddress
1LTTMumbai Lokmanya Tilak Terminus (5)  -08:05+051-1337.1737mCRMumbai - 400089, Maharashtra
2KYNKalyan Junction (8)X  08:35+1908:40+195m41-1300.44710mCRKalyan 421301, Maharashtra
3IGPIgatpuri (4)X10:35 10:25+310:40 10:30+115m21-1218.671589mCRIgatpuri 422403, Maharashtra
4DVLDevlali (3)X  11:08+2311:10+232m11-1173.723561mCRDist. Nashik 422401, Maharashtra
5NKNasik Road (3)  11:28 11:25+1311:30+142 5m11-1167.997563mCRNashik 422101, Maharashtra
6MMRManmad Junction (6)  12:25 12:15+1812:30 12:20+185m11-1095.285580mCRManmad 423104, Maharashtra
7BSLBhusaval Junction (8)X  14:45 14:30+2414:55 14:40+2810m--1-911.076208mCRBhusaval 425201, Maharashtra
8BAUBurhanpur (2)  15:38 15:23+4315:40 15:25+432m21-856.534269mCRBurhanpur, Madhya Pradesh
9KNWKhandwa Junction (5)  17:35 17:25+617:40 17:30+95m--1-787.695310mCRKhandwa, Madhya Pradesh
10HDHarda (3)  18:38+2218:40+222m--1-680.057289mWCRHarda, Madhya Pradesh
11ETItarsi Junction (7)X20:00+420:10+1310m--1-604.272329mWCRItarsi 461111, Madhya Pradesh
12PPIPipariya (3)  21:06+4021:08+402m--1-536.981338mWCRPiparia, Madhya Pradesh
13JBPJabalpur Junction (4)X  23:20+3723:30+3810m41-359.278416mWCRJabalpur, Madhya Pradesh
14KTEKatni Junction (6)X  00:40+3800:45+395m--2-268.374387mWCRKatni, Madhya Pradesh
15STASatna Junction (3)XO  02:10 02:05+4202:20 02:15+4010m--2-170.047322mWCRSatna, Madhya Pradesh
16COIChheoki Junction (3)»  06:05 05:50+806:10 05:55+125m--20.08096mNCRDist.-Allahabad, Uttar Pradesh
17MZPMirzapur (3)X  07:10 06:55+1707:15 07:00+185m--280.43388mNCRMirzapur, Uttar Pradesh
18MGSMughal Sarai Junction (8)  08:55+409:10+615m--2143.67583mECRMughalsarai 232101, Uttar Pradesh
19DLNDildarnagar Junction (2)  09:56+1209:58+122m--2201.38072mECRDildarnagar, Uttar Pradesh
20BXRBuxar (3)  10:25+1410:27+142m--2237.58967mECRBuxar, Bihar
21DUREDumraon (3)  10:38+2110:40+232m--2253.98970mECRDumraon, Bihar
22ARAAra Junction (3)  11:19 11:15+2511:21 11:17+262m--2306.07963mECRarrah( 06182-233411), Bihar
23DNRDanapur (5)X  11:47+1:2511:57+1:3010m--2345.61158mECRKhagaul, Bihar
24PNBEPatna Junction (10)X  12:50+1:0213:00+1:1110m82355.03557mECRPatna 800001, Bihar
25PNCPatna Saheb (3)  13:17+1:4213:19+1:422m--2364.84359mECRPatna 800008, Bihar
26FUTFatwa (6)  13:36+1:4013:38+1:462m--2377.16353mECRPatna, Bihar
27KOOKhusropur (2)  13:46+1:4813:48+1:532m--2385.56452mECRPatna, Bihar
28BKPBakhtiyarpur Junction (5)  14:02+1:5814:04+2:092m--2400.36051mECRPatna, Bihar
29BARHBarh (3)  14:22+2:1514:24+2:172m--2418.54349mECRBarh, Bihar
30MKAMokama Junction (4)X  15:00+2:0915:05+2:065m--2444.25648mECRPatna, Bihar
31HTZHathidah Junction (2)  15:14+2:0815:16+2:082m12452.66350mECRMusahari, Bihar
32BRYABarhiya (3)  15:25+2:1115:27+2:112m--2462.03547mECRBarahiya, Bihar
33LKRLuckeesarai Junction (2)  15:53+1:5515:55+1:552m--2477.0852mECRLakhisarai, Bihar
34KIULKiul Junction (5)X  16:05+1:1716:12+1:187m--2478.45153mECRDist. Lakhisarai, Bihar
35AHAAbhaipur (3)  16:39+1:5116:41+1:522m--2501.44252mERAbhaipur, Bihar
36JMPJamalpur Junction (4)X  17:12+1:4517:27+1:4115m--2523.26159mERJamalpur 06344-243101, Bihar
37BUPBariarpur (3)  17:38+1:4717:40+1:472m--2534.45442mERMunger, Bihar
38SGGSultanGanj (3)  18:00+1:4618:02+1:462m--2552.34542mERSultanganj, Bihar
39BGPBhagalpur Junction (6)  18:35+1:2718:50+1:2515m--2577.36949mERBhagalpur, Bihar
40CLGKahalgaon (2)X  19:16+1:4919:18+1:492m12607.33944mERBhagalpur, Bihar
41SBGSahibganj Junction (3)  20:25+5320:35+5910m12651.24538mERSahibganj, Jharkhand
42BHWBarharwa Junction (3)  21:48+4921:50+532m22705.74036mERBarharwa, Jharkhand
43NFKNew Farakka Junction (3)  22:17+5022:19+502m22723.73532mERDist - Murshidabad, West Bengal
44MLDTMalda Town (5)X  23:20+1:1623:35+1:1515m--2758.77430mERDist - Malda, West Bengal
45KNEKishanGanj (3)  01:35+1:0201:40+1:025m--3906.95052mNFRKishanganj, Bihar
46NJPNew Jalpaiguri Junction (8)X  03:25+1:0703:40+5815m--3994.252114mNFRCity-Siliguri . Dist-Jalpaiguri, West Bengal
47DQGDhupguri (2)  05:00 04:55+5905:05 05:00+595m--31059.66075mNFRDist - Jalpaiguri, West Bengal
48NCBNew Cooch Behar Junction (5)  06:05 06:00+5006:10 06:05+535m--31119.75647mNFRDist : Cooch Behar-736101, West Bengal
49NOQNew Alipurduar (2)  06:35 06:25+5006:40 06:30+495m--31138.44948mNFRDist - Alipurduar - 736121, West Bengal
50NBQNew Bongaigaon Junction (4)  08:40+3108:50+3310m--31245.14658mNFR783381., Assam
51BPRDBarpeta Road  09:52 09:47+3609:57 09:52+365m--31289.24749mNFRHowli, Assam
52RNYRangiya Junction (5)  11:15+4111:25+3710m--31354.03858mNFRRangia, Assam
53KYQKamakhya Junction (4)  12:30+3112:35+325m--31394.71755mNFRDist - KAMRUP, Assam
54GHYGuwahati (7)•  13:00+59---31401.7-60mNFRGuwahati, Assam
Scroll to Top
Scroll to Bottom